Little Lake, Michigan
Current Conditions -  °F | °C
As of 7:48 AM on Tuesday 21 Oct 2014 (Local Time) from KSAW Reporting Station
Overcast Overcast  
Wind Chill: 31°   Ceiling: 1400
Heat Index: 37°   Visibility: 10mi
Dew Point: 34°   Wind: 8mph
Humidity: 87%   Direction: 360°N
Pressure: 30.17"   Gusts: NA
Location:  46.29°N, 87.34°W
Report Text: KSAW 211148Z 36007KT 10SM OVC014 03/01 A3017
Loading
Personal Weather Stations






























Interactive Weather Map
Tropical Storm Tracking
New forecast layout! Learn more

10-Day Weather Forecast

Advertisements
Track Severe Weather on mobile